Time;durP1;ratioP1;P1;durP2;ratioP2;P2;SDS_P1;SDS_P2;PMS_P1;PMS_P2;Temp;Humidity;BMP_temperature;BMP_pressure;BME280_temperature;BME280_humidity;BME280_pressure;Samples;Min_cycle;Max_cycle;Signal;HPM_P1;HPM_P2
2023/03/10 00:01:53;;;;;;;15.98;14.18;;;14.60;56.40;;;;;;3927915;30;20058;-69
2023/03/10 00:04:33;;;;;;;16.02;14.32;;;14.60;56.40;;;;;;3917126;30;20051;-69
2023/03/10 00:07:14;;;;;;;13.67;12.27;;;14.60;55.70;;;;;;3913516;30;20243;-69
2023/03/10 00:09:55;;;;;;;13.98;12.57;;;14.60;55.70;;;;;;3914816;30;20758;-69
2023/03/10 00:12:36;;;;;;;13.80;10.87;;;14.70;54.90;;;;;;3921261;30;20562;-69
2023/03/10 00:15:17;;;;;;;13.85;12.43;;;14.70;55.20;;;;;;3913331;30;20071;-68
2023/03/10 00:17:59;;;;;;;12.65;11.35;;;14.80;55.20;;;;;;3905082;30;20508;-69
2023/03/10 00:20:40;;;;;;;12.80;11.52;;;14.80;55.10;;;;;;3917047;30;20144;-69
2023/03/10 00:23:21;;;;;;;13.77;12.40;;;14.90;55.20;;;;;;3927207;30;20075;-69
2023/03/10 00:26:02;;;;;;;14.30;12.80;;;14.90;54.40;;;;;;3927851;30;20141;-69
2023/03/10 00:28:43;;;;;;;15.35;13.75;;;14.90;54.40;;;;;;3916427;30;20129;-69
2023/03/10 00:31:30;;;;;;;15.98;14.30;;;14.90;54.30;;;;;;3916741;30;20405;-70
2023/03/10 00:34:12;;;;;;;14.93;13.32;;;14.90;54.00;;;;;;3927826;30;20050;-69
2023/03/10 00:36:53;;;;;;;15.88;14.35;;;14.80;53.60;;;;;;3916518;30;20078;-70
2023/03/10 00:39:34;;;;;;;14.95;13.35;;;14.80;54.50;;;;;;3916402;30;20472;-69
2023/03/10 00:42:16;;;;;;;15.05;13.45;;;14.80;54.30;;;;;;3906765;30;20100;-69
2023/03/10 00:44:58;;;;;;;13.13;11.82;;;14.80;54.30;;;;;;3916838;30;20066;-70
2023/03/10 00:47:39;;;;;;;12.55;11.45;;;14.70;54.50;;;;;;3916520;30;20059;-70
2023/03/10 00:50:21;;;;;;;10.52;9.48;;;14.70;55.00;;;;;;3922416;30;20523;-70
2023/03/10 00:53:02;;;;;;;11.85;10.85;;;14.60;55.00;;;;;;3927409;30;20056;-70
2023/03/10 00:55:43;;;;;;;10.43;9.43;;;14.60;54.30;;;;;;3927128;30;20416;-70
2023/03/10 00:58:24;;;;;;;9.75;8.85;;;14.60;54.20;;;;;;3916199;30;20743;-70
2023/03/10 01:01:10;;;;;;;10.27;9.30;;;14.60;54.30;;;;;;3915608;30;20063;-69
2023/03/10 01:03:53;;;;;;;8.25;7.45;;;14.60;54.10;;;;;;3903911;30;20063;-69
2023/03/10 01:06:35;;;;;;;9.70;8.82;;;14.60;54.20;;;;;;3912982;30;20059;-68
2023/03/10 01:09:16;;;;;;;10.25;9.35;;;14.70;54.90;;;;;;3925277;30;20117;-68
2023/03/10 01:11:58;;;;;;;9.02;8.23;;;14.70;54.50;;;;;;3906090;30;20060;-69
2023/03/10 01:14:39;;;;;;;9.60;8.70;;;14.60;53.90;;;;;;3901966;30;20131;-69
2023/03/10 01:17:21;;;;;;;8.88;8.07;;;14.50;53.50;;;;;;3912111;30;20401;-70
2023/03/10 01:20:05;;;;;;;8.90;8.05;;;14.50;54.50;;;;;;3916328;30;20109;-69
2023/03/10 01:22:47;;;;;;;9.75;8.85;;;14.40;54.30;;;;;;3926539;30;20058;-68
2023/03/10 01:25:28;;;;;;;8.05;7.22;;;14.30;54.10;;;;;;3916060;30;20079;-69
2023/03/10 01:28:09;;;;;;;7.65;6.95;;;14.10;54.80;;;;;;3911832;30;20206;-69
2023/03/10 01:30:50;;;;;;;8.93;8.15;;;14.10;55.50;;;;;;3901694;30;20055;-68
2023/03/10 01:33:32;;;;;;;7.80;7.10;;;14.00;55.30;;;;;;3912420;30;20063;-68
2023/03/10 01:36:15;;;;;;;7.28;6.68;;;13.90;55.10;;;;;;3913625;30;20402;-69
2023/03/10 01:39:00;;;;;;;7.97;7.18;;;13.90;55.90;;;;;;3901393;30;20583;-69
2023/03/10 01:41:42;;;;;;;7.35;6.68;;;13.80;56.40;;;;;;3912426;30;20466;-69
2023/03/10 01:44:23;;;;;;;7.72;7.03;;;13.80;56.40;;;;;;3901637;30;20051;-69
2023/03/10 01:47:05;;;;;;;;;;;13.90;56.00;;;;;;3911764;30;20137;-69
2023/03/10 01:49:47;;;;;;;7.45;6.75;;;14.10;55.20;;;;;;3925832;30;20287;-69
2023/03/10 01:52:34;;;;;;;7.32;6.63;;;14.20;54.70;;;;;;3926741;30;20116;-69
2023/03/10 01:55:20;;;;;;;7.80;6.65;;;14.30;55.40;;;;;;3915639;30;20051;-69
2023/03/10 01:58:03;;;;;;;6.97;6.28;;;14.40;55.10;;;;;;3912074;30;20087;-69
2023/03/10 02:00:44;;;;;;;7.03;6.40;;;14.50;55.00;;;;;;3901143;30;20170;-69
2023/03/10 02:03:28;;;;;;;6.88;6.15;;;14.50;55.80;;;;;;3914805;30;20408;-70
2023/03/10 02:06:14;;;;;;;7.85;7.05;;;14.50;54.50;;;;;;3915281;30;20116;-69
2023/03/10 02:08:58;;;;;;;7.78;7.07;;;14.50;54.70;;;;;;3915738;30;20055;-70
2023/03/10 02:11:40;;;;;;;7.72;7.22;;;14.60;54.80;;;;;;3914157;30;20068;-69
2023/03/10 02:14:21;;;;;;;7.10;6.40;;;14.60;54.10;;;;;;3926780;30;20425;-69
2023/03/10 02:17:02;;;;;;;8.07;7.35;;;14.60;53.80;;;;;;3915041;30;20064;-69
2023/03/10 02:19:56;;;;;;;8.17;7.47;;;14.70;54.60;;;;;;3915831;30;20047;-69
2023/03/10 02:22:38;;;;;;;7.97;7.30;;;14.70;53.40;;;;;;3910842;30;20063;-69
2023/03/10 02:25:39;;;;;;;7.38;6.63;;;14.80;53.50;;;;;;3901202;30;20468;-69
2023/03/10 02:28:21;;;;;;;8.57;7.80;;;14.70;53.50;;;;;;3900528;30;20110;-70
2023/03/10 02:31:03;;;;;;;8.77;7.97;;;14.70;53.30;;;;;;3911981;30;20090;-70
2023/03/10 02:33:44;;;;;;;;;;;14.70;53.90;;;;;;3901492;30;20425;-70
2023/03/10 02:36:25;;;;;;;9.45;8.55;;;14.60;53.80;;;;;;3918443;30;19937;-69
2023/03/10 02:39:06;;;;;;;8.45;7.70;;;14.60;53.90;;;;;;3915624;30;20051;-69
2023/03/10 02:41:47;;;;;;;8.37;7.57;;;14.60;53.70;;;;;;3915160;30;20047;-69
2023/03/10 02:44:32;;;;;;;7.97;7.22;;;14.50;54.10;;;;;;3914791;30;20121;-69
2023/03/10 02:47:14;;;;;;;9.38;8.45;;;14.50;53.90;;;;;;3916118;30;20499;-70
2023/03/10 02:49:56;;;;;;;9.27;8.48;;;14.60;53.90;;;;;;3917974;30;20439;-70
2023/03/10 02:52:43;;;;;;;8.52;7.60;;;14.60;53.20;;;;;;3915188;30;20054;-70
2023/03/10 02:55:24;;;;;;;8.43;7.68;;;14.60;53.50;;;;;;3916675;30;20063;-70
2023/03/10 02:58:06;;;;;;;9.60;8.70;;;14.70;53.10;;;;;;3918069;30;20056;-70
2023/03/10 03:00:49;;;;;;;10.27;9.38;;;14.80;53.20;;;;;;3927291;30;20113;-70
2023/03/10 03:03:31;;;;;;;9.25;8.35;;;14.90;53.50;;;;;;3918071;30;20054;-69
2023/03/10 03:06:12;;;;;;;9.02;8.18;;;15.00;52.90;;;;;;3903633;30;20394;-69
2023/03/10 03:08:54;;;;;;;8.27;7.45;;;15.00;52.20;;;;;;3904733;30;20163;-69
2023/03/10 03:11:36;;;;;;;9.60;8.70;;;15.00;52.40;;;;;;3907323;30;20055;-69
2023/03/10 03:14:20;;;;;;;8.75;7.85;;;15.10;52.40;;;;;;3908468;30;20074;-69
2023/03/10 03:17:03;;;;;;;9.10;8.20;;;15.00;52.80;;;;;;3917876;30;20194;-69
2023/03/10 03:19:44;;;;;;;9.43;8.48;;;15.00;53.00;;;;;;3911259;30;20558;-70
2023/03/10 03:22:25;;;;;;;11.33;10.37;;;15.00;52.80;;;;;;3903665;30;20148;-70
2023/03/10 03:25:07;;;;;;;11.95;10.75;;;14.90;52.80;;;;;;3914004;30;20197;-70
2023/03/10 03:27:49;;;;;;;13.38;11.20;;;14.80;53.00;;;;;;3903710;30;20055;-70
2023/03/10 03:30:30;;;;;;;12.30;11.18;;;14.80;53.50;;;;;;3899402;30;20052;-69
2023/03/10 03:33:13;;;;;;;12.32;10.57;;;14.60;53.10;;;;;;3903482;30;20055;-69
2023/03/10 03:35:55;;;;;;;12.35;11.10;;;14.50;54.20;;;;;;3889072;30;20056;-69
2023/03/10 03:38:37;;;;;;;13.82;12.02;;;14.40;54.60;;;;;;3889688;30;20072;-69
2023/03/10 03:41:18;;;;;;;12.70;11.27;;;14.40;54.30;;;;;;3914260;30;20060;-69
2023/03/10 03:44:00;;;;;;;10.80;9.63;;;14.40;54.90;;;;;;3902851;30;20144;-69
2023/03/10 03:46:43;;;;;;;12.15;11.05;;;14.50;54.70;;;;;;3903031;30;20055;-69
2023/03/10 03:49:25;;;;;;;11.82;10.65;;;14.60;54.30;;;;;;3902696;30;20177;-69
2023/03/10 03:52:07;;;;;;;12.15;10.95;;;14.70;54.10;;;;;;3902714;30;20059;-70
2023/03/10 03:54:48;;;;;;;11.60;10.38;;;14.80;53.70;;;;;;3901519;30;20055;-70
2023/03/10 03:57:30;;;;;;;11.52;10.13;;;14.80;53.70;;;;;;3902292;30;20129;-70
2023/03/10 04:00:16;;;;;;;11.52;10.32;;;14.80;53.90;;;;;;3887948;30;20406;-69
2023/03/10 04:03:00;;;;;;;13.38;12.07;;;14.90;54.10;;;;;;3883599;30;20442;-70
2023/03/10 04:05:44;;;;;;;12.10;10.90;;;14.80;53.80;;;;;;3902052;30;20056;-69
2023/03/10 04:08:26;;;;;;;11.73;10.52;;;14.80;53.80;;;;;;3902663;30;20064;-69
2023/03/10 04:11:07;;;;;;;12.57;11.32;;;14.70;53.90;;;;;;3891843;30;20189;-69
2023/03/10 04:13:50;;;;;;;13.38;12.00;;;14.60;54.10;;;;;;3902216;30;20167;-69
2023/03/10 04:16:32;;;;;;;13.63;11.75;;;14.50;54.60;;;;;;3893541;30;20517;-70
2023/03/10 04:19:14;;;;;;;13.02;11.73;;;14.40;54.80;;;;;;3902379;30;20413;-70
2023/03/10 04:22:01;;;;;;;11.85;10.65;;;14.50;55.10;;;;;;3902445;30;20455;-69
2023/03/10 04:24:44;;;;;;;12.73;11.30;;;14.60;54.50;;;;;;3902193;30;20066;-69
2023/03/10 04:27:25;;;;;;;14.07;12.55;;;14.70;54.90;;;;;;3902019;30;20540;-69
2023/03/10 04:30:08;;;;;;;13.23;11.48;;;14.90;54.20;;;;;;3916807;30;20063;-70
2023/03/10 04:32:51;;;;;;;13.88;12.48;;;15.10;53.40;;;;;;3905988;30;20097;-69
2023/03/10 04:35:35;;;;;;;14.45;12.73;;;15.20;53.90;;;;;;3916878;30;20062;-69
2023/03/10 04:38:17;;;;;;;14.35;12.65;;;15.30;53.30;;;;;;3916657;30;20397;-70
2023/03/10 04:41:01;;;;;;;15.65;13.55;;;15.30;53.10;;;;;;3916795;30;20109;-68
2023/03/10 04:43:46;;;;;;;16.38;14.65;;;15.30;53.00;;;;;;3908726;30;20052;-69
2023/03/10 04:46:31;;;;;;;16.27;14.52;;;15.30;53.80;;;;;;3902278;30;20101;-69
2023/03/10 04:49:14;;;;;;;16.35;13.80;;;15.20;53.50;;;;;;3902460;30;20106;-69
2023/03/10 04:51:56;;;;;;;19.08;15.68;;;15.20;54.60;;;;;;3903064;30;20184;-69
2023/03/10 04:54:39;;;;;;;18.88;16.08;;;15.20;53.70;;;;;;3920641;30;20512;-69
2023/03/10 04:57:20;;;;;;;21.25;17.45;;;15.10;54.50;;;;;;3916252;30;20065;-68
2023/03/10 05:00:00;;;;;;;23.17;18.00;;;15.20;54.50;;;;;;3925965;30;20149;-68
2023/03/10 05:02:44;;;;;;;23.48;18.83;;;15.30;54.00;;;;;;3912278;30;20076;-68
2023/03/10 05:05:26;;;;;;;24.70;19.38;;;15.40;54.10;;;;;;3916461;30;20205;-68
2023/03/10 05:08:08;;;;;;;23.23;18.52;;;15.50;54.10;;;;;;3916501;30;20148;-68
2023/03/10 05:10:50;;;;;;;;;;;15.50;54.00;;;;;;3915904;30;20055;-68
2023/03/10 05:13:32;;;;;;;24.23;19.90;;;15.60;53.70;;;;;;3916149;30;19933;-69
2023/03/10 05:16:16;;;;;;;26.52;21.15;;;15.60;53.10;;;;;;3916188;30;21002;-69
2023/03/10 05:18:58;;;;;;;24.25;21.30;;;15.60;53.40;;;;;;3901936;30;20067;-69
2023/03/10 05:21:42;;;;;;;27.08;20.77;;;15.60;53.70;;;;;;3905501;30;20078;-69
2023/03/10 05:24:23;;;;;;;27.30;21.70;;;15.60;54.30;;;;;;3901762;30;20087;-69
2023/03/10 05:27:07;;;;;;;27.23;19.93;;;15.50;52.80;;;;;;3901826;30;20117;-69
2023/03/10 05:29:49;;;;;;;25.63;21.10;;;15.40;53.20;;;;;;3901541;30;20063;-69
2023/03/10 05:32:34;;;;;;;24.00;18.98;;;15.30;54.10;;;;;;3898125;30;20067;-69
2023/03/10 05:35:16;;;;;;;21.90;17.63;;;15.20;55.30;;;;;;3901696;30;20064;-69
2023/03/10 05:37:58;;;;;;;22.08;18.52;;;15.30;54.40;;;;;;3887079;30;20140;-69
2023/03/10 05:40:40;;;;;;;20.55;16.63;;;15.40;54.00;;;;;;3901078;30;20055;-69
2023/03/10 05:43:22;;;;;;;18.63;16.42;;;15.50;54.70;;;;;;3901375;30;20058;-70
2023/03/10 05:46:04;;;;;;;20.25;16.08;;;15.60;53.70;;;;;;3901184;30;20071;-70
2023/03/10 05:48:49;;;;;;;18.15;15.27;;;15.60;53.60;;;;;;3893662;30;20566;-70
2023/03/10 05:51:30;;;;;;;16.45;14.75;;;15.60;52.90;;;;;;3897825;30;20072;-70
2023/03/10 05:54:15;;;;;;;18.75;15.57;;;15.60;53.30;;;;;;3901066;30;20601;-71
2023/03/10 05:56:56;;;;;;;16.58;14.65;;;15.50;53.80;;;;;;3901193;30;20525;-70
2023/03/10 05:59:41;;;;;;;16.15;13.88;;;15.40;53.10;;;;;;3891193;30;20051;-70
2023/03/10 06:02:22;;;;;;;14.75;13.15;;;15.50;53.70;;;;;;3892878;30;20135;-71
2023/03/10 06:05:02;;;;;;;15.23;13.63;;;15.40;53.90;;;;;;3912266;30;20068;-71
2023/03/10 06:07:43;;;;;;;15.57;13.98;;;15.40;54.00;;;;;;3912177;30;20063;-70
2023/03/10 06:10:24;;;;;;;15.05;13.43;;;15.30;53.70;;;;;;3911707;30;20055;-70
2023/03/10 06:13:05;;;;;;;14.35;12.38;;;15.20;54.20;;;;;;3911956;30;20181;-70
2023/03/10 06:15:50;;;;;;;13.93;12.52;;;15.00;54.60;;;;;;3911706;30;20067;-70
2023/03/10 06:18:31;;;;;;;12.35;10.98;;;14.90;54.40;;;;;;3911831;30;20090;-70
2023/03/10 06:21:14;;;;;;;13.63;12.40;;;14.80;54.10;;;;;;3911621;30;20519;-70
2023/03/10 06:23:55;;;;;;;14.77;12.55;;;14.80;53.60;;;;;;3911786;30;20501;-70
2023/03/10 06:26:36;;;;;;;13.27;11.98;;;14.70;54.40;;;;;;3912025;30;20409;-70
2023/03/10 06:29:17;;;;;;;12.65;11.38;;;14.70;55.00;;;;;;3904970;30;20059;-70
2023/03/10 06:31:59;;;;;;;12.18;10.95;;;14.70;54.10;;;;;;3911573;30;20511;-70
2023/03/10 06:34:40;;;;;;;11.45;10.30;;;14.80;53.80;;;;;;3911968;30;20056;-70
2023/03/10 06:37:20;;;;;;;13.30;11.03;;;14.90;53.40;;;;;;3911730;30;20111;-71
2023/03/10 06:40:03;;;;;;;11.93;9.43;;;15.00;53.80;;;;;;3924509;30;20558;-71
2023/03/10 06:42:44;;;;;;;11.60;10.27;;;15.10;53.70;;;;;;3926003;30;20071;-70
2023/03/10 06:45:25;;;;;;;;;;;15.20;54.10;;;;;;3926238;30;20206;-70
2023/03/10 06:48:07;;;;;;;11.93;10.68;;;15.30;53.10;;;;;;3900791;30;19937;-70
2023/03/10 06:50:55;;;;;;;12.05;10.40;;;15.30;53.70;;;;;;3900023;30;20059;-70
2023/03/10 06:53:37;;;;;;;11.13;10.00;;;15.40;53.70;;;;;;3907658;30;20192;-70
2023/03/10 06:56:20;;;;;;;12.07;10.63;;;15.50;52.80;;;;;;3926205;30;20417;-70
2023/03/10 06:59:00;;;;;;;13.38;11.05;;;15.60;53.00;;;;;;3907685;30;20416;-70
2023/03/10 07:01:41;;;;;;;11.73;10.60;;;15.60;52.30;;;;;;3925906;30;20536;-70
2023/03/10 07:04:23;;;;;;;12.05;10.77;;;15.70;52.20;;;;;;3926031;30;20067;-70
2023/03/10 07:07:04;;;;;;;14.32;11.95;;;15.70;52.40;;;;;;3913674;30;20246;-70
2023/03/10 07:09:46;;;;;;;11.75;10.50;;;15.70;52.90;;;;;;3917271;30;20614;-74
2023/03/10 07:12:27;;;;;;;12.40;11.13;;;15.70;51.90;;;;;;3915428;30;20719;-66
2023/03/10 07:15:08;;;;;;;12.77;11.45;;;15.70;51.60;;;;;;3920093;30;20531;-64
2023/03/10 07:17:49;;;;;;;;;;;15.70;52.30;;;;;;3926076;30;20052;-64
2023/03/10 07:20:31;;;;;;;13.63;12.25;;;15.70;51.90;;;;;;3925475;30;19937;-64
2023/03/10 07:23:12;;;;;;;13.23;11.82;;;15.60;52.30;;;;;;3916530;30;20063;-65
2023/03/10 07:25:54;;;;;;;16.42;12.73;;;15.60;51.70;;;;;;3899942;30;20064;-66
2023/03/10 07:28:36;;;;;;;13.02;11.73;;;15.60;51.60;;;;;;3909279;30;20059;-65
2023/03/10 07:31:17;;;;;;;14.05;12.40;;;15.60;51.80;;;;;;3925965;30;20055;-66
2023/03/10 07:33:58;;;;;;;14.65;12.35;;;15.50;51.80;;;;;;3925335;30;20169;-66
2023/03/10 07:36:40;;;;;;;14.93;12.80;;;15.40;53.30;;;;;;3913571;30;20069;-66
2023/03/10 07:39:21;;;;;;;14.68;12.85;;;15.30;53.40;;;;;;3913926;30;20137;-66
2023/03/10 07:42:02;;;;;;;13.90;12.50;;;15.20;53.20;;;;;;3916387;30;20063;-66
2023/03/10 07:44:45;;;;;;;14.93;13.32;;;15.10;53.10;;;;;;3907768;30;20067;-66
2023/03/10 07:47:26;;;;;;;15.75;14.13;;;15.10;53.10;;;;;;3914017;30;20527;-66
2023/03/10 07:50:07;;;;;;;14.23;12.75;;;15.10;52.70;;;;;;3928254;30;20059;-66
2023/03/10 07:52:50;;;;;;;;;;;15.10;52.80;;;;;;3928239;30;20110;-66
2023/03/10 07:55:31;;;;;;;15.75;14.05;;;15.10;53.40;;;;;;3927992;30;20481;-65
2023/03/10 07:58:12;;;;;;;16.80;14.98;;;15.00;53.30;;;;;;3928052;30;20214;-66
2023/03/10 08:00:56;;;;;;;14.67;12.80;;;14.90;53.90;;;;;;3926288;30;20072;-66
2023/03/10 08:03:37;;;;;;;16.23;14.30;;;14.80;53.70;;;;;;3915565;30;20297;-65
2023/03/10 08:06:20;;;;;;;15.10;13.00;;;14.70;53.80;;;;;;3916754;30;20060;-66
2023/03/10 08:09:02;;;;;;;15.68;13.48;;;14.60;54.20;;;;;;3927979;30;20195;-66
2023/03/10 08:11:43;;;;;;;16.05;14.32;;;14.40;54.60;;;;;;3928075;30;20055;-65
2023/03/10 08:14:24;;;;;;;16.48;14.10;;;14.40;55.40;;;;;;3927689;30;20385;-65
2023/03/10 08:17:05;;;;;;;16.25;14.55;;;14.50;55.00;;;;;;3927854;30;20164;-66
2023/03/10 08:19:46;;;;;;;17.10;14.77;;;14.50;55.20;;;;;;3907334;30;20418;-66
2023/03/10 08:22:28;;;;;;;16.17;14.55;;;14.60;54.20;;;;;;3913433;30;20051;-71
2023/03/10 08:25:11;;;;;;;16.70;15.00;;;14.60;54.50;;;;;;3925980;30;20070;-70
2023/03/10 08:27:51;;;;;;;16.90;13.65;;;14.60;54.30;;;;;;3916305;30;20175;-71
2023/03/10 08:30:32;;;;;;;16.67;14.98;;;14.60;54.20;;;;;;3913401;30;21118;-71
2023/03/10 08:33:13;;;;;;;15.48;13.88;;;14.60;54.90;;;;;;3912574;30;20416;-71
2023/03/10 08:36:02;;;;;;;16.85;13.98;;;14.60;54.50;;;;;;3927395;30;20050;-70
2023/03/10 08:38:43;;;;;;;18.92;14.85;;;14.60;54.80;;;;;;3927261;30;20059;-70
2023/03/10 08:41:28;;;;;;;17.20;14.35;;;14.50;55.00;;;;;;3930947;30;20058;-65
2023/03/10 08:44:13;;;;;;;16.27;14.30;;;14.50;55.10;;;;;;3927095;30;20065;-70
2023/03/10 08:46:54;;;;;;;17.15;15.20;;;14.50;55.40;;;;;;3926725;30;20046;-70
2023/03/10 08:49:35;;;;;;;17.98;14.20;;;14.40;54.80;;;;;;3914203;30;20069;-70
2023/03/10 08:52:17;;;;;;;16.58;13.70;;;14.40;54.50;;;;;;3929618;30;20136;-70
2023/03/10 08:54:58;;;;;;;15.95;12.43;;;14.30;54.80;;;;;;3933747;30;20667;-70
2023/03/10 08:57:41;;;;;;;17.20;14.00;;;14.30;54.80;;;;;;3928627;30;20067;-70
2023/03/10 09:00:23;;;;;;;16.83;15.02;;;14.20;55.60;;;;;;3931982;30;20067;-69
2023/03/10 09:03:04;;;;;;;17.77;15.93;;;14.20;55.70;;;;;;3934829;30;20167;-70
2023/03/10 09:05:45;;;;;;;17.43;15.63;;;14.20;55.30;;;;;;3938791;30;20059;-65
2023/03/10 09:08:26;;;;;;;16.13;14.13;;;14.20;55.00;;;;;;3926860;30;20188;-65
2023/03/10 09:11:08;;;;;;;15.65;13.85;;;14.10;54.40;;;;;;3902142;30;20063;-65
2023/03/10 09:13:50;;;;;;;17.15;14.55;;;14.00;54.20;;;;;;3914246;30;20083;-65
2023/03/10 09:16:32;;;;;;;15.90;13.77;;;14.00;55.40;;;;;;3925376;30;20136;-66
2023/03/10 09:19:13;;;;;;;16.52;13.55;;;13.90;55.50;;;;;;3929371;30;20051;-66
2023/03/10 09:21:56;;;;;;;19.87;15.63;;;13.80;55.60;;;;;;3929158;30;20059;-69
2023/03/10 09:24:37;;;;;;;18.20;15.73;;;13.80;56.00;;;;;;3927235;30;20051;-66
2023/03/10 09:27:18;;;;;;;19.02;16.17;;;13.90;56.20;;;;;;3914149;30;20113;-65
2023/03/10 09:30:00;;;;;;;19.42;16.45;;;14.00;56.50;;;;;;3914563;30;20120;-69
2023/03/10 09:32:43;;;;;;;17.70;15.80;;;14.10;56.00;;;;;;3928536;30;20159;-69
2023/03/10 09:35:24;;;;;;;17.40;15.52;;;14.10;55.60;;;;;;3906167;30;20353;-70
2023/03/10 09:38:05;;;;;;;16.58;14.85;;;14.10;55.50;;;;;;3930551;30;20201;-70
2023/03/10 09:40:53;;;;;;;16.08;14.30;;;14.10;55.70;;;;;;3928122;30;20066;-69
2023/03/10 09:43:38;;;;;;;17.30;14.75;;;14.00;54.90;;;;;;3929654;30;20063;-69
2023/03/10 09:46:25;;;;;;;16.83;15.00;;;14.00;56.00;;;;;;3925210;30;20078;-66
2023/03/10 09:49:14;;;;;;;15.57;13.88;;;14.00;56.20;;;;;;3935569;30;20511;-65
2023/03/10 09:51:55;;;;;;;19.25;15.07;;;13.90;55.30;;;;;;3933992;30;20090;-65
2023/03/10 09:54:52;;;;;;;17.58;15.20;;;13.80;55.20;;;;;;3927286;30;21288;-69
2023/03/10 09:57:34;;;;;;;18.30;15.70;;;13.70;54.60;;;;;;3930186;30;20067;-69
2023/03/10 10:00:22;;;;;;;17.67;14.65;;;13.70;55.90;;;;;;3934619;30;20059;-65
2023/03/10 10:03:12;;;;;;;16.42;14.65;;;13.60;55.50;;;;;;3926557;30;20063;-65
2023/03/10 10:05:54;;;;;;;16.52;14.43;;;13.60;56.40;;;;;;3934586;30;20054;-66
2023/03/10 10:08:45;;;;;;;16.70;14.65;;;13.70;55.90;;;;;;3936268;30;20058;-65
2023/03/10 10:11:36;;;;;;;15.10;13.15;;;13.90;55.80;;;;;;3935935;30;20062;-69
2023/03/10 10:14:19;;;;;;;17.02;15.25;;;14.00;55.00;;;;;;3936280;30;20143;-69
2023/03/10 10:17:31;;;;;;;15.57;12.98;;;14.10;56.20;;;;;;3914979;30;20059;-69
2023/03/10 10:20:22;;;;;;;17.13;14.27;;;14.30;56.20;;;;;;3922265;30;20070;-69
2023/03/10 10:23:05;;;;;;;16.65;15.05;;;14.40;55.20;;;;;;3933022;30;20075;-68
2023/03/10 10:25:46;;;;;;;15.95;14.25;;;14.40;54.20;;;;;;3924165;30;20046;-66
2023/03/10 10:28:40;;;;;;;15.73;14.23;;;14.40;55.00;;;;;;3913116;30;20067;-66
2023/03/10 10:31:23;;;;;;;16.85;14.13;;;14.30;54.50;;;;;;3917069;30;20137;-67
2023/03/10 10:34:07;;;;;;;15.73;13.63;;;14.30;54.50;;;;;;3923816;30;20567;-65
2023/03/10 10:36:53;;;;;;;15.65;14.02;;;14.20;55.30;;;;;;3930265;30;20071;-65
2023/03/10 10:39:40;;;;;;;15.68;13.75;;;14.20;54.80;;;;;;3938079;30;20193;-65
2023/03/10 10:42:23;;;;;;;15.07;12.35;;;14.20;54.60;;;;;;3930461;30;20489;-65
2023/03/10 10:45:22;;;;;;;17.38;13.75;;;14.30;54.70;;;;;;3934213;30;20237;-68
2023/03/10 10:48:04;;;;;;;15.50;13.50;;;14.40;55.60;;;;;;3929113;30;20267;-68
2023/03/10 10:50:53;;;;;;;15.68;13.05;;;14.50;54.40;;;;;;3931799;30;20078;-69
2023/03/10 10:53:39;;;;;;;15.15;12.23;;;14.50;54.30;;;;;;3933363;30;20523;-68
2023/03/10 10:56:22;;;;;;;16.75;14.20;;;14.60;54.70;;;;;;3930077;30;20059;-68
2023/03/10 10:59:06;;;;;;;16.48;14.68;;;14.60;55.80;;;;;;3930879;30;20165;-68
2023/03/10 11:01:50;;;;;;;16.13;13.80;;;14.60;54.60;;;;;;3930933;30;20140;-68
2023/03/10 11:04:42;;;;;;;15.07;13.55;;;14.60;54.10;;;;;;3931456;30;20063;-68
2023/03/10 11:07:26;;;;;;;15.98;14.10;;;14.70;53.70;;;;;;3928882;30;20469;-68
2023/03/10 11:10:13;;;;;;;16.75;13.80;;;14.70;53.80;;;;;;3931157;30;20059;-69
2023/03/10 11:13:00;;;;;;;14.20;12.70;;;14.70;53.80;;;;;;3935329;30;20125;-69
2023/03/10 11:15:51;;;;;;;16.75;14.50;;;14.60;54.20;;;;;;3934193;30;20058;-68
2023/03/10 11:18:37;;;;;;;15.93;14.23;;;14.60;53.80;;;;;;3933878;30;20129;-64
2023/03/10 11:21:23;;;;;;;16.90;14.07;;;14.70;54.10;;;;;;3926187;30;20362;-64
2023/03/10 11:24:13;;;;;;;15.25;13.65;;;14.60;54.60;;;;;;3930143;30;20078;-65
2023/03/10 11:27:03;;;;;;;15.60;13.95;;;14.60;54.80;;;;;;3937021;30;20361;-66
2023/03/10 11:30:00;;;;;;;15.07;13.45;;;14.50;54.50;;;;;;3931128;30;20050;-65
2023/03/10 11:32:58;;;;;;;13.93;12.45;;;14.40;55.00;;;;;;3919774;30;20074;-64
2023/03/10 11:35:44;;;;;;;15.85;12.60;;;14.40;54.80;;;;;;3919155;30;20374;-64
2023/03/10 11:38:34;;;;;;;15.70;14.05;;;14.40;55.40;;;;;;3926412;30;20059;-64
2023/03/10 11:41:18;;;;;;;14.13;12.60;;;14.30;55.90;;;;;;3927254;30;20547;-65
2023/03/10 11:44:07;;;;;;;16.73;12.75;;;14.20;56.00;;;;;;3934520;30;20074;-64
2023/03/10 11:46:57;;;;;;;15.90;11.80;;;14.10;55.80;;;;;;3927501;30;20075;-64
2023/03/10 11:49:42;;;;;;;15.30;12.73;;;14.10;57.30;;;;;;3930314;30;20511;-68
2023/03/10 11:52:25;;;;;;;14.95;11.85;;;14.10;56.60;;;;;;3933470;30;20090;-68
2023/03/10 11:55:11;;;;;;;14.55;12.73;;;14.10;56.30;;;;;;3932712;30;20214;-68
2023/03/10 11:57:59;;;;;;;15.10;13.23;;;14.10;56.80;;;;;;3935054;30;20209;-68
2023/03/10 12:00:42;;;;;;;15.15;12.50;;;14.10;56.30;;;;;;3934805;30;20075;-67
2023/03/10 12:03:42;;;;;;;14.77;12.00;;;14.10;56.50;;;;;;3922049;30;20067;-65
2023/03/10 12:06:29;;;;;;;13.68;11.73;;;14.10;56.10;;;;;;3936411;30;20528;-64
2023/03/10 12:09:19;;;;;;;14.00;12.32;;;14.00;56.50;;;;;;3931482;30;20066;-65
2023/03/10 12:12:03;;;;;;;14.30;12.10;;;14.00;57.40;;;;;;3929627;30;20063;-64
2023/03/10 12:14:45;;;;;;;14.23;12.73;;;14.10;56.90;;;;;;3925865;30;20060;-63
2023/03/10 12:17:29;;;;;;;13.60;11.43;;;14.20;57.00;;;;;;3930921;30;20836;-65
2023/03/10 12:20:26;;;;;;;14.25;11.70;;;14.20;56.10;;;;;;3910875;30;20055;-65
2023/03/10 12:23:38;;;;;;;13.85;11.93;;;14.20;56.60;;;;;;3925598;30;20063;-65
2023/03/10 12:26:56;;;;;;;13.35;11.95;;;14.30;57.00;;;;;;3931426;30;20230;-67
2023/03/10 12:29:40;;;;;;;11.82;10.40;;;14.30;56.70;;;;;;3932480;30;20102;-67
2023/03/10 12:32:45;;;;;;;12.65;10.88;;;14.20;56.30;;;;;;3933924;30;20188;-68
2023/03/10 12:35:47;;;;;;;12.68;10.93;;;14.20;55.50;;;;;;3932989;30;20116;-68
2023/03/10 12:38:31;;;;;;;12.85;9.77;;;14.20;56.60;;;;;;3917205;30;20384;-64
2023/03/10 12:41:13;;;;;;;12.85;11.63;;;14.20;56.60;;;;;;3926097;30;20059;-64
2023/03/10 12:43:57;;;;;;;11.65;10.50;;;14.20;57.00;;;;;;3930741;30;20142;-64
2023/03/10 12:46:45;;;;;;;12.15;10.93;;;14.20;57.70;;;;;;3920798;30;20423;-64
2023/03/10 12:49:34;;;;;;;11.82;10.40;;;14.30;57.70;;;;;;3936092;30;20469;-64
2023/03/10 12:52:24;;;;;;;11.40;10.10;;;14.30;57.90;;;;;;3934967;30;20071;-65
2023/03/10 12:55:16;;;;;;;10.95;9.70;;;14.40;57.60;;;;;;3938724;30;20066;-65
2023/03/10 12:57:59;;;;;;;;;;;14.40;57.40;;;;;;3928505;30;20120;-66
2023/03/10 13:00:47;;;;;;;12.43;10.35;;;14.50;58.00;;;;;;3907796;30;20030;-65
2023/03/10 13:03:32;;;;;;;10.25;8.80;;;14.40;58.00;;;;;;3925269;30;20063;-65
2023/03/10 13:06:23;;;;;;;11.18;9.68;;;14.50;57.10;;;;;;3929725;30;20185;-65
2023/03/10 13:09:18;;;;;;;10.02;9.02;;;14.60;56.50;;;;;;3927740;30;20997;-68
2023/03/10 13:12:03;;;;;;;10.90;9.77;;;14.60;56.80;;;;;;3927920;30;20085;-68
2023/03/10 13:14:44;;;;;;;11.02;9.93;;;14.60;55.70;;;;;;3909633;30;20067;-69
2023/03/10 13:17:26;;;;;;;10.18;9.15;;;14.60;55.50;;;;;;3920110;30;20059;-68
2023/03/10 13:20:14;;;;;;;10.23;9.23;;;14.50;55.40;;;;;;3937001;30;20381;-68
2023/03/10 13:22:58;;;;;;;10.18;9.18;;;14.50;56.50;;;;;;3928532;30;20063;-68
2023/03/10 13:25:50;;;;;;;11.35;10.35;;;14.40;55.20;;;;;;3929955;30;20107;-68
2023/03/10 13:28:33;;;;;;;12.70;9.52;;;14.50;55.10;;;;;;3931658;30;20201;-68
2023/03/10 13:31:20;;;;;;;10.88;9.77;;;14.40;55.90;;;;;;3927484;30;20468;-68
2023/03/10 13:34:12;;;;;;;9.85;8.85;;;14.40;57.10;;;;;;3919194;30;20186;-70
2023/03/10 13:36:53;;;;;;;10.40;9.40;;;14.50;56.20;;;;;;3930573;30;20082;-69
2023/03/10 13:39:37;;;;;;;10.35;9.13;;;14.60;57.20;;;;;;3924928;30;20054;-69
2023/03/10 13:42:24;;;;;;;10.20;9.05;;;14.70;57.10;;;;;;3929183;30;20081;-69
2023/03/10 13:45:23;;;;;;;9.85;8.75;;;14.80;55.80;;;;;;3912773;30;20063;-69
2023/03/10 13:48:05;;;;;;;9.75;8.75;;;14.80;56.70;;;;;;3928513;30;20116;-70
2023/03/10 13:50:47;;;;;;;9.75;8.85;;;14.80;56.10;;;;;;3919397;30;20071;-70
2023/03/10 13:53:28;;;;;;;9.60;8.50;;;14.70;56.50;;;;;;3927910;30;20093;-70
2023/03/10 13:56:19;;;;;;;8.90;8.00;;;14.70;56.40;;;;;;3932425;30;20067;-70
2023/03/10 13:59:01;;;;;;;9.73;8.70;;;14.50;57.10;;;;;;3940462;30;20650;-69